createdAt,value
2022-08-24T00:02:01.674Z,20.69
2022-08-24T00:04:28.436Z,20.56
2022-08-24T00:06:58.908Z,20.67
2022-08-24T00:09:25.513Z,20.59
2022-08-24T00:11:51.964Z,20.54
2022-08-24T00:14:18.838Z,20.62
2022-08-24T00:16:45.323Z,20.65
2022-08-24T00:19:12.274Z,20.52
2022-08-24T00:21:38.681Z,20.49
2022-08-24T00:24:05.997Z,20.34
2022-08-24T00:26:32.454Z,20.27
2022-08-24T00:29:01.331Z,20.18
2022-08-24T00:31:29.686Z,20.14
2022-08-24T00:33:56.426Z,20.23
2022-08-24T00:36:24.756Z,20.14
2022-08-24T00:38:51.610Z,20.08
2022-08-24T00:41:18.208Z,20.04
2022-08-24T00:44:00.229Z,20.09
2022-08-24T00:46:34.913Z,20.23
2022-08-24T00:49:11.277Z,19.98
2022-08-24T00:51:44.930Z,19.93
2022-08-24T00:54:15.474Z,20.11
2022-08-24T00:56:46.319Z,20.07
2022-08-24T00:59:17.956Z,20.05
2022-08-24T01:01:44.902Z,19.96
2022-08-24T01:04:18.231Z,20.04
2022-08-24T01:06:46.142Z,19.90
2022-08-24T01:09:14.288Z,20.03
2022-08-24T01:11:44.735Z,19.78
2022-08-24T01:14:11.193Z,19.82
2022-08-24T01:16:58.824Z,19.88
2022-08-24T01:19:42.612Z,19.69
2022-08-24T01:22:36.930Z,19.84
2022-08-24T01:25:05.279Z,19.89
2022-08-24T01:27:31.671Z,19.80
2022-08-24T01:30:02.869Z,19.63
2022-08-24T01:32:29.967Z,19.65
2022-08-24T01:34:57.146Z,19.71
2022-08-24T01:37:24.239Z,19.71
2022-08-24T01:39:53.868Z,19.69
2022-08-24T01:42:20.458Z,19.71
2022-08-24T01:44:47.313Z,19.74
2022-08-24T01:47:16.095Z,19.64
2022-08-24T01:49:45.752Z,19.59
2022-08-24T01:52:15.763Z,19.57
2022-08-24T01:54:43.579Z,19.66
2022-08-24T01:57:10.569Z,19.54
2022-08-24T01:59:42.348Z,19.42
2022-08-24T02:02:27.173Z,19.50
2022-08-24T02:04:54.523Z,19.43
2022-08-24T02:07:20.939Z,19.47
2022-08-24T02:09:47.625Z,19.27
2022-08-24T02:12:14.723Z,19.23
2022-08-24T02:14:41.119Z,19.28
2022-08-24T02:17:08.664Z,19.28
2022-08-24T02:19:35.608Z,19.36
2022-08-24T02:22:02.607Z,19.13
2022-08-24T02:24:29.687Z,19.20
2022-08-24T02:26:56.505Z,19.26
2022-08-24T02:29:23.152Z,19.13
2022-08-24T02:31:49.980Z,19.14
2022-08-24T02:34:16.457Z,19.04
2022-08-24T02:36:42.954Z,18.97
2022-08-24T02:39:09.903Z,19.04
2022-08-24T02:41:37.691Z,18.89
2022-08-24T02:44:05.332Z,18.94
2022-08-24T02:46:31.809Z,18.88
2022-08-24T02:49:10.538Z,18.94
2022-08-24T02:51:44.773Z,18.82
2022-08-24T02:54:12.850Z,18.95
2022-08-24T02:56:39.949Z,18.91
2022-08-24T02:59:06.707Z,18.94
2022-08-24T03:01:33.194Z,18.84
2022-08-24T03:03:59.810Z,18.81
2022-08-24T03:06:26.365Z,18.79
2022-08-24T03:08:56.608Z,18.61
2022-08-24T03:11:27.772Z,18.65
2022-08-24T03:13:56.194Z,18.61
2022-08-24T03:16:22.917Z,18.55
2022-08-24T03:18:49.622Z,18.58
2022-08-24T03:21:17.242Z,18.65
2022-08-24T03:23:44.090Z,18.58
2022-08-24T03:26:10.822Z,18.60
2022-08-24T03:28:37.724Z,18.56
2022-08-24T03:31:04.620Z,18.54
2022-08-24T03:33:31.283Z,18.52
2022-08-24T03:35:57.766Z,18.51
2022-08-24T03:38:25.111Z,18.54
2022-08-24T03:40:51.790Z,18.61
2022-08-24T03:43:36.583Z,18.63
2022-08-24T03:46:07.387Z,18.50
2022-08-24T03:48:33.888Z,18.46
2022-08-24T03:51:00.295Z,18.50
2022-08-24T03:53:26.722Z,18.44
2022-08-24T03:55:53.089Z,18.32
2022-08-24T03:58:19.670Z,18.28
2022-08-24T04:00:46.260Z,18.34
2022-08-24T04:03:15.488Z,18.44
2022-08-24T04:05:42.370Z,18.43
2022-08-24T04:08:09.018Z,18.39
2022-08-24T04:10:35.450Z,18.55
2022-08-24T04:13:02.472Z,18.47
2022-08-24T04:15:31.844Z,18.42
2022-08-24T04:17:58.264Z,18.33
2022-08-24T04:20:25.811Z,18.38
2022-08-24T04:22:53.589Z,18.25
2022-08-24T04:25:28.489Z,18.25
2022-08-24T04:27:54.892Z,18.19
2022-08-24T04:30:22.634Z,18.14
2022-08-24T04:32:49.011Z,18.22
2022-08-24T04:35:15.511Z,18.35
2022-08-24T04:37:42.168Z,18.33
2022-08-24T04:40:09.500Z,18.29
2022-08-24T04:42:37.588Z,18.12
2022-08-24T04:45:05.194Z,18.13
2022-08-24T04:47:31.576Z,18.14
2022-08-24T04:49:58.056Z,18.13
2022-08-24T04:52:24.510Z,18.14
2022-08-24T04:54:51.058Z,18.07
2022-08-24T04:57:18.526Z,18.12
2022-08-24T04:59:45.446Z,18.20
2022-08-24T05:02:11.892Z,18.15
2022-08-24T05:04:38.555Z,18.15
2022-08-24T05:07:05.913Z,18.15
2022-08-24T05:09:32.691Z,18.17
2022-08-24T05:11:59.058Z,18.12
2022-08-24T05:14:28.862Z,18.26
2022-08-24T05:16:55.755Z,18.31
2022-08-24T05:19:23.468Z,18.35
2022-08-24T05:21:50.199Z,18.19
2022-08-24T05:24:17.083Z,18.36
2022-08-24T05:26:43.577Z,18.42
2022-08-24T05:29:10.003Z,18.35
2022-08-24T05:31:36.938Z,18.38
2022-08-24T05:34:04.392Z,18.21
2022-08-24T05:36:34.338Z,18.27
2022-08-24T05:39:08.019Z,18.44
2022-08-24T05:41:37.523Z,18.40
2022-08-24T05:44:06.667Z,18.44
2022-08-24T05:46:33.351Z,18.51
2022-08-24T05:49:00.185Z,18.48
2022-08-24T05:51:27.259Z,18.56
2022-08-24T05:53:53.929Z,18.57
2022-08-24T05:56:20.726Z,18.68
2022-08-24T05:58:47.663Z,18.48
2022-08-24T06:01:21.111Z,18.52
2022-08-24T06:03:49.100Z,18.68
2022-08-24T06:06:16.767Z,18.69
2022-08-24T06:08:46.218Z,18.70
2022-08-24T06:11:20.071Z,18.87
2022-08-24T06:13:46.435Z,18.92
2022-08-24T06:16:22.080Z,19.07
2022-08-24T06:18:50.361Z,19.07
2022-08-24T06:21:19.659Z,19.03
2022-08-24T06:23:47.949Z,19.07
2022-08-24T06:26:33.585Z,19.25
2022-08-24T06:29:03.207Z,19.31
2022-08-24T06:31:36.214Z,19.38
2022-08-24T06:34:07.076Z,19.41
2022-08-24T06:36:33.640Z,19.57
2022-08-24T06:39:00.109Z,19.73
2022-08-24T06:41:27.373Z,19.82
2022-08-24T06:43:53.840Z,19.87
2022-08-24T06:46:24.464Z,19.94
2022-08-24T06:48:52.937Z,19.99
2022-08-24T06:51:20.348Z,20.00
2022-08-24T06:53:46.768Z,20.21
2022-08-24T06:56:13.196Z,20.25
2022-08-24T06:58:42.759Z,20.33
2022-08-24T07:01:13.920Z,20.49
2022-08-24T07:03:40.566Z,20.44
2022-08-24T07:06:08.476Z,20.62
2022-08-24T07:08:36.078Z,20.66
2022-08-24T07:11:03.303Z,20.80
2022-08-24T07:13:31.335Z,20.88
2022-08-24T07:15:58.809Z,21.09
2022-08-24T07:18:25.359Z,21.15
2022-08-24T07:20:53.533Z,21.25
2022-08-24T07:23:20.871Z,21.26
2022-08-24T07:25:50.475Z,21.38
2022-08-24T07:28:18.615Z,21.45
2022-08-24T07:30:58.075Z,21.62
2022-08-24T07:33:24.503Z,21.67
2022-08-24T07:35:50.862Z,21.68
2022-08-24T07:38:22.351Z,21.78
2022-08-24T07:41:14.495Z,22.06
2022-08-24T07:43:35.208Z,22.33
2022-08-24T07:46:06.518Z,22.27
2022-08-24T07:48:33.180Z,22.47
2022-08-24T07:51:10.649Z,22.66
2022-08-24T07:53:53.175Z,23.80
2022-08-24T07:56:20.522Z,25.18
2022-08-24T07:58:47.456Z,26.23
2022-08-24T08:01:13.890Z,26.04
2022-08-24T08:03:41.491Z,26.93
2022-08-24T08:06:16.119Z,27.12
2022-08-24T08:08:43.707Z,27.68
2022-08-24T08:11:11.012Z,27.72
2022-08-24T08:13:38.242Z,27.85
2022-08-24T08:16:08.410Z,27.73
2022-08-24T08:18:36.153Z,28.69
2022-08-24T08:21:06.175Z,27.39
2022-08-24T08:23:51.419Z,28.71
2022-08-24T08:26:22.555Z,28.56
2022-08-24T08:28:49.003Z,28.99
2022-08-24T08:31:15.430Z,28.83
2022-08-24T08:33:41.985Z,28.54
2022-08-24T08:36:12.043Z,28.50
2022-08-24T08:38:39.994Z,28.98
2022-08-24T08:41:42.132Z,28.19
2022-08-24T08:44:19.223Z,28.01
2022-08-24T08:47:11.724Z,28.70
2022-08-24T08:50:06.284Z,29.53
2022-08-24T08:53:05.890Z,29.59
2022-08-24T08:55:41.702Z,29.13
2022-08-24T08:58:15.591Z,29.27
2022-08-24T09:01:07.915Z,29.40
2022-08-24T09:03:53.931Z,28.51
2022-08-24T09:06:46.710Z,27.45
2022-08-24T09:09:34.954Z,26.94
2022-08-24T09:12:30.011Z,26.06
2022-08-24T09:15:20.479Z,25.60
2022-08-24T09:18:31.438Z,24.98
2022-08-24T09:21:14.675Z,24.82
2022-08-24T09:23:46.826Z,24.38
2022-08-24T09:26:48.909Z,24.31
2022-08-24T09:29:32.341Z,24.25
2022-08-24T09:32:12.273Z,24.16
2022-08-24T09:34:59.686Z,24.27
2022-08-24T09:37:52.415Z,24.30
2022-08-24T09:41:15.797Z,24.44
2022-08-24T09:44:10.437Z,24.18
2022-08-24T09:47:02.938Z,24.36
2022-08-24T09:49:48.687Z,24.14
2022-08-24T09:52:37.036Z,24.28
2022-08-24T09:55:40.960Z,24.16
2022-08-24T09:58:18.606Z,24.24
2022-08-24T10:00:48.580Z,24.21
2022-08-24T10:03:45.455Z,24.39
2022-08-24T10:06:39.837Z,24.61
2022-08-24T10:09:44.555Z,24.44
2022-08-24T10:12:31.732Z,24.50
2022-08-24T10:15:28.490Z,24.74
2022-08-24T10:18:10.146Z,25.06
2022-08-24T10:20:52.200Z,25.15
2022-08-24T10:23:38.311Z,25.15
2022-08-24T10:26:13.466Z,25.18
2022-08-24T10:29:16.464Z,25.05
2022-08-24T10:31:58.224Z,25.24
2022-08-24T10:34:33.835Z,25.44
2022-08-24T10:37:32.776Z,25.62
2022-08-24T10:40:36.832Z,25.41
2022-08-24T10:43:33.815Z,25.35
2022-08-24T10:46:23.579Z,25.69
2022-08-24T10:48:59.744Z,26.26
2022-08-24T10:51:45.180Z,26.43
2022-08-24T10:54:13.258Z,26.75
2022-08-24T10:56:49.227Z,27.06
2022-08-24T10:59:25.035Z,27.11
2022-08-24T11:02:12.990Z,27.13
2022-08-24T11:04:40.340Z,27.66
2022-08-24T11:07:21.511Z,27.45
2022-08-24T11:10:01.075Z,27.39
2022-08-24T11:12:45.676Z,27.64
2022-08-24T11:15:18.079Z,27.45
2022-08-24T11:18:02.152Z,27.76
2022-08-24T11:20:43.996Z,27.42
2022-08-24T11:23:17.835Z,27.63
2022-08-24T11:26:02.000Z,27.60
2022-08-24T11:28:40.919Z,27.43
2022-08-24T11:31:22.562Z,27.70
2022-08-24T11:33:53.016Z,27.87
2022-08-24T11:36:26.915Z,28.22
2022-08-24T11:39:19.990Z,28.59
2022-08-24T11:42:07.557Z,28.49
2022-08-24T11:44:41.192Z,28.08
2022-08-24T11:47:39.704Z,27.89
2022-08-24T11:50:22.490Z,28.52
2022-08-24T11:53:12.658Z,28.80
2022-08-24T11:56:00.319Z,28.37
2022-08-24T11:58:38.459Z,28.10
2022-08-24T12:01:14.134Z,28.19
2022-08-24T12:04:01.270Z,28.35
2022-08-24T12:06:37.289Z,28.21
2022-08-24T12:09:06.691Z,28.95
2022-08-24T12:11:36.048Z,29.01
2022-08-24T12:14:14.952Z,28.79
2022-08-24T12:17:06.403Z,28.96
2022-08-24T12:19:36.200Z,29.48
2022-08-24T12:22:07.321Z,29.25
2022-08-24T12:24:40.303Z,29.58
2022-08-24T12:27:11.947Z,29.51
2022-08-24T12:29:45.779Z,29.09
2022-08-24T12:32:18.972Z,29.68
2022-08-24T12:35:09.159Z,29.54
2022-08-24T12:37:52.315Z,29.94
2022-08-24T12:40:42.912Z,30.06
2022-08-24T12:43:29.926Z,29.74
2022-08-24T12:45:59.873Z,29.84
2022-08-24T12:48:48.849Z,29.82
2022-08-24T12:51:40.147Z,29.52
2022-08-24T12:54:09.483Z,29.79
2022-08-24T12:56:54.644Z,30.20
2022-08-24T12:59:39.358Z,30.79
2022-08-24T13:02:15.035Z,30.85
2022-08-24T13:04:56.425Z,30.71
2022-08-24T13:07:40.247Z,30.57
2022-08-24T13:10:13.534Z,30.33
2022-08-24T13:12:43.835Z,30.32
2022-08-24T13:15:28.475Z,30.86
2022-08-24T13:18:02.937Z,30.52
2022-08-24T13:20:38.932Z,30.34
2022-08-24T13:23:14.097Z,30.44
2022-08-24T13:25:54.749Z,30.41
2022-08-24T13:28:21.232Z,30.70
2022-08-24T13:30:53.591Z,30.56
2022-08-24T13:33:47.474Z,30.41
2022-08-24T13:36:47.924Z,29.91
2022-08-24T13:39:34.889Z,30.40
2022-08-24T13:42:10.838Z,29.85
2022-08-24T13:45:14.773Z,30.10
2022-08-24T13:47:57.573Z,30.27
2022-08-24T13:51:08.684Z,30.40
2022-08-24T13:53:44.340Z,30.35
2022-08-24T13:56:28.302Z,30.70
2022-08-24T13:59:22.625Z,30.47
2022-08-24T14:02:04.632Z,29.93
2022-08-24T14:05:00.003Z,30.15
2022-08-24T14:07:34.296Z,30.25
2022-08-24T14:10:33.873Z,30.30
2022-08-24T14:13:37.440Z,30.21
2022-08-24T14:16:56.361Z,30.34
2022-08-24T14:20:06.290Z,30.26
2022-08-24T14:22:53.903Z,30.20
2022-08-24T14:25:33.043Z,30.39
2022-08-24T14:27:59.391Z,30.24
2022-08-24T14:30:25.678Z,30.05
2022-08-24T14:33:01.245Z,30.13
2022-08-24T14:35:44.441Z,30.32
2022-08-24T14:38:20.322Z,30.76
2022-08-24T14:41:03.240Z,30.01
2022-08-24T14:43:31.134Z,29.93
2022-08-24T14:46:12.712Z,30.53
2022-08-24T14:48:54.954Z,30.74
2022-08-24T14:51:45.923Z,31.09
2022-08-24T14:54:31.930Z,31.03
2022-08-24T14:57:31.496Z,30.71
2022-08-24T15:00:06.996Z,30.48
2022-08-24T15:02:51.609Z,30.94
2022-08-24T15:05:27.066Z,31.26
2022-08-24T15:08:06.290Z,31.03
2022-08-24T15:10:44.409Z,31.24
2022-08-24T15:13:31.319Z,31.29
2022-08-24T15:16:03.661Z,31.51
2022-08-24T15:18:39.618Z,31.76
2022-08-24T15:21:24.421Z,31.32
2022-08-24T15:24:11.472Z,31.48
2022-08-24T15:26:43.774Z,30.90
2022-08-24T15:29:17.102Z,31.26
2022-08-24T15:31:55.836Z,30.81
2022-08-24T15:34:34.708Z,29.70
2022-08-24T15:37:01.754Z,29.54
2022-08-24T15:39:29.188Z,29.50
2022-08-24T15:41:57.039Z,29.42
2022-08-24T15:44:27.466Z,29.73
2022-08-24T15:47:01.248Z,29.69
2022-08-24T15:49:33.371Z,29.55
2022-08-24T15:52:03.741Z,29.43
2022-08-24T15:54:56.116Z,29.15
2022-08-24T15:57:27.702Z,28.76
2022-08-24T16:00:06.026Z,28.78
2022-08-24T16:02:35.839Z,28.62
2022-08-24T16:05:14.133Z,28.63
2022-08-24T16:08:02.792Z,28.35
2022-08-24T16:10:52.836Z,28.38
2022-08-24T16:13:19.130Z,28.41
2022-08-24T16:15:59.807Z,28.39
2022-08-24T16:18:47.217Z,28.23
2022-08-24T16:21:28.458Z,27.92
2022-08-24T16:24:12.932Z,27.77
2022-08-24T16:26:45.455Z,27.89
2022-08-24T16:29:37.887Z,27.81
2022-08-24T16:32:22.246Z,27.57
2022-08-24T16:35:01.349Z,27.91
2022-08-24T16:37:27.930Z,27.81
2022-08-24T16:39:54.350Z,27.76
2022-08-24T16:42:27.350Z,28.00
2022-08-24T16:44:54.716Z,27.75
2022-08-24T16:47:22.392Z,27.45
2022-08-24T16:49:49.413Z,27.55
2022-08-24T16:52:15.983Z,27.47
2022-08-24T16:54:42.431Z,27.68
2022-08-24T16:57:32.171Z,27.32
2022-08-24T16:59:58.869Z,27.26
2022-08-24T17:02:28.951Z,27.30
2022-08-24T17:04:56.120Z,27.31
2022-08-24T17:07:27.220Z,27.34
2022-08-24T17:09:54.519Z,27.09
2022-08-24T17:12:21.685Z,26.98
2022-08-24T17:14:48.495Z,26.89
2022-08-24T17:17:21.357Z,27.02
2022-08-24T17:19:50.916Z,27.10
2022-08-24T17:22:17.435Z,26.78
2022-08-24T17:24:44.920Z,26.69
2022-08-24T17:27:12.867Z,26.80
2022-08-24T17:29:40.116Z,26.66
2022-08-24T17:32:07.138Z,26.46
2022-08-24T17:34:33.771Z,26.46
2022-08-24T17:37:01.319Z,26.30
2022-08-24T17:39:28.504Z,26.28
2022-08-24T17:41:58.408Z,26.52
2022-08-24T17:44:28.351Z,26.41
2022-08-24T17:46:58.871Z,26.39
2022-08-24T17:49:27.497Z,26.18
2022-08-24T17:51:55.990Z,26.22
2022-08-24T17:54:23.224Z,25.88
2022-08-24T17:56:50.840Z,26.26
2022-08-24T17:59:27.891Z,26.07
2022-08-24T18:01:57.611Z,26.11
2022-08-24T18:04:27.792Z,25.98
2022-08-24T18:06:56.715Z,26.04
2022-08-24T18:09:32.996Z,25.78
2022-08-24T18:12:05.450Z,25.62
2022-08-24T18:14:34.376Z,25.60
2022-08-24T18:17:05.287Z,25.48
2022-08-24T18:19:33.920Z,25.32
2022-08-24T18:22:01.790Z,25.29
2022-08-24T18:24:32.514Z,25.25
2022-08-24T18:27:10.087Z,25.06
2022-08-24T18:29:39.912Z,25.15
2022-08-24T18:32:06.769Z,24.98
2022-08-24T18:34:34.392Z,24.87
2022-08-24T18:37:01.340Z,24.86
2022-08-24T18:39:27.753Z,25.13
2022-08-24T18:41:57.313Z,24.98
2022-08-24T18:44:27.229Z,25.15
2022-08-24T18:46:57.474Z,24.90
2022-08-24T18:49:23.973Z,24.96
2022-08-24T18:51:50.704Z,25.05
2022-08-24T18:54:24.091Z,24.87
2022-08-24T18:56:51.012Z,24.96
2022-08-24T18:59:18.976Z,24.92
2022-08-24T19:02:05.919Z,24.98
2022-08-24T19:04:33.053Z,24.75
2022-08-24T19:07:00.016Z,24.37
2022-08-24T19:09:29.642Z,24.00
2022-08-24T19:11:58.548Z,23.98
2022-08-24T19:14:25.015Z,23.94
2022-08-24T19:16:52.587Z,23.83
2022-08-24T19:19:20.366Z,23.88
2022-08-24T19:21:46.835Z,23.76
2022-08-24T19:24:13.792Z,23.92
2022-08-24T19:26:40.196Z,23.66
2022-08-24T19:29:06.834Z,23.34
2022-08-24T19:31:34.564Z,23.28
2022-08-24T19:34:03.668Z,23.19
2022-08-24T19:36:30.617Z,22.95
2022-08-24T19:38:57.034Z,23.15
2022-08-24T19:41:24.198Z,23.38
2022-08-24T19:44:27.539Z,23.14
2022-08-24T19:46:55.477Z,22.79
2022-08-24T19:49:22.050Z,22.64
2022-08-24T19:51:48.674Z,22.68
2022-08-24T19:54:15.349Z,22.61
2022-08-24T19:56:42.200Z,22.76
2022-08-24T19:59:19.947Z,22.64
2022-08-24T20:01:46.472Z,22.63
2022-08-24T20:04:12.937Z,22.66
2022-08-24T20:06:40.681Z,22.39
2022-08-24T20:09:07.821Z,22.35
2022-08-24T20:11:34.780Z,22.30
2022-08-24T20:14:02.550Z,22.27
2022-08-24T20:16:34.328Z,22.34
2022-08-24T20:19:01.732Z,22.50
2022-08-24T20:21:30.209Z,22.42
2022-08-24T20:23:57.454Z,22.41
2022-08-24T20:26:25.206Z,22.31
2022-08-24T20:28:53.960Z,22.18
2022-08-24T20:31:28.116Z,22.26
2022-08-24T20:33:56.260Z,22.22
2022-08-24T20:36:33.974Z,22.02
2022-08-24T20:39:02.092Z,22.00
2022-08-24T20:41:28.809Z,21.80
2022-08-24T20:43:56.528Z,21.90
2022-08-24T20:46:24.188Z,21.84
2022-08-24T20:48:55.761Z,21.73
2022-08-24T20:51:23.380Z,21.72
2022-08-24T20:53:49.808Z,21.63
2022-08-24T20:56:21.036Z,21.57
2022-08-24T20:58:56.299Z,21.60
2022-08-24T21:01:22.775Z,21.65
2022-08-24T21:03:49.243Z,21.58
2022-08-24T21:06:18.064Z,21.75
2022-08-24T21:08:47.544Z,21.79
2022-08-24T21:11:14.964Z,21.73
2022-08-24T21:13:41.382Z,21.67
2022-08-24T21:16:11.784Z,21.45
2022-08-24T21:18:38.259Z,21.30
2022-08-24T21:21:05.621Z,21.20
2022-08-24T21:23:33.871Z,21.28
2022-08-24T21:26:12.080Z,21.19
2022-08-24T21:28:41.871Z,21.09
2022-08-24T21:31:08.894Z,21.18
2022-08-24T21:33:53.973Z,21.08
2022-08-24T21:36:23.538Z,20.95
2022-08-24T21:38:51.880Z,20.96
2022-08-24T21:41:20.233Z,20.97
2022-08-24T21:43:46.608Z,21.14
2022-08-24T21:46:13.431Z,20.82
2022-08-24T21:48:39.862Z,21.14
2022-08-24T21:51:06.995Z,21.05
2022-08-24T21:53:33.355Z,20.78
2022-08-24T21:56:01.755Z,20.65
2022-08-24T21:58:28.163Z,21.00
2022-08-24T22:00:58.896Z,20.86
2022-08-24T22:03:25.995Z,20.98
2022-08-24T22:05:58.778Z,20.86
2022-08-24T22:08:25.968Z,20.57
2022-08-24T22:10:55.337Z,20.58
2022-08-24T22:13:21.711Z,20.23
2022-08-24T22:15:48.350Z,20.21
2022-08-24T22:18:15.179Z,20.43
2022-08-24T22:20:41.583Z,20.54
2022-08-24T22:23:07.952Z,20.20
2022-08-24T22:25:34.791Z,20.39
2022-08-24T22:28:01.176Z,20.10
2022-08-24T22:30:27.719Z,19.89
2022-08-24T22:32:54.165Z,20.29
2022-08-24T22:35:20.591Z,20.04
2022-08-24T22:37:48.210Z,19.80
2022-08-24T22:40:15.775Z,19.89
2022-08-24T22:42:45.583Z,20.12
2022-08-24T22:45:12.069Z,19.97
2022-08-24T22:47:38.470Z,19.92
2022-08-24T22:50:06.278Z,19.86
2022-08-24T22:52:33.064Z,19.88
2022-08-24T22:54:59.954Z,19.97
2022-08-24T22:57:26.841Z,20.20
2022-08-24T22:59:54.563Z,20.30
2022-08-24T23:02:21.184Z,20.24
2022-08-24T23:04:50.394Z,20.35
2022-08-24T23:07:17.675Z,20.57
2022-08-24T23:09:45.498Z,20.65
2022-08-24T23:12:15.986Z,20.61
2022-08-24T23:14:43.171Z,20.60
2022-08-24T23:17:10.541Z,20.54
2022-08-24T23:19:55.408Z,20.66
2022-08-24T23:22:22.403Z,20.58
2022-08-24T23:24:49.390Z,20.73
2022-08-24T23:27:17.751Z,20.65
2022-08-24T23:29:45.847Z,20.47
2022-08-24T23:32:17.679Z,20.61
2022-08-24T23:34:46.275Z,20.68
2022-08-24T23:37:13.965Z,20.55
2022-08-24T23:39:40.364Z,20.54
2022-08-24T23:42:07.066Z,20.58
2022-08-24T23:44:33.910Z,20.50
2022-08-24T23:47:01.532Z,20.53
2022-08-24T23:49:29.584Z,20.44
2022-08-24T23:51:57.161Z,20.60
2022-08-24T23:54:24.092Z,20.50
2022-08-24T23:56:52.903Z,20.57
2022-08-24T23:59:27.555Z,20.49
